Time;durP1;ratioP1;P1;durP2;ratioP2;P2;SDS_P1;SDS_P2;PMS_P1;PMS_P2;Temp;Humidity;BMP_temperature;BMP_pressure;BME280_temperature;BME280_humidity;BME280_pressure;Samples;Min_cycle;Max_cycle;Signal;HPM_P1;HPM_P2
2023/12/02 00:01:57;;;;;;;16.95;8.27;;;-0.20;99.90;;;;;;4983551;28;20121;-74
2023/12/02 00:04:45;;;;;;;16.13;8.27;;;-0.20;99.90;;;;;;4962944;28;20038;-74
2023/12/02 00:07:32;;;;;;;16.67;8.18;;;-0.20;99.90;;;;;;4972020;28;20422;-73
2023/12/02 00:10:19;;;;;;;13.50;7.43;;;-0.20;99.90;;;;;;4971462;28;20119;-73
2023/12/02 00:13:07;;;;;;;13.50;6.97;;;-0.20;99.90;;;;;;4987970;28;20273;-73
2023/12/02 00:15:54;;;;;;;10.45;5.15;;;-0.20;99.90;;;;;;4979537;28;20053;-73
2023/12/02 00:18:41;;;;;;;14.23;7.68;;;-0.20;99.90;;;;;;4960453;28;20082;-73
2023/12/02 00:21:29;;;;;;;11.55;6.35;;;-0.20;99.90;;;;;;4970047;28;20125;-73
2023/12/02 00:24:15;;;;;;;13.52;6.47;;;-0.20;99.90;;;;;;4975550;28;20466;-73
2023/12/02 00:27:01;;;;;;;10.52;6.25;;;-0.20;99.90;;;;;;4997598;28;20133;-73
2023/12/02 00:29:47;;;;;;;14.57;7.55;;;-0.20;99.90;;;;;;4976059;28;20046;-73
2023/12/02 00:32:33;;;;;;;11.88;7.10;;;-0.20;99.90;;;;;;4967289;28;20173;-73
2023/12/02 00:35:19;;;;;;;12.77;7.25;;;-0.30;99.90;;;;;;4964876;28;20074;-73
2023/12/02 00:38:05;;;;;;;13.52;7.05;;;-0.20;99.90;;;;;;4975947;28;20042;-74
2023/12/02 00:40:52;;;;;;;14.15;6.50;;;-0.30;99.90;;;;;;4985892;28;20046;-74
2023/12/02 00:43:38;;;;;;;12.18;6.88;;;-0.20;99.90;;;;;;4968449;28;20035;-74
2023/12/02 00:46:24;;;;;;;13.23;6.40;;;-0.20;99.90;;;;;;4967945;28;20061;-74
2023/12/02 00:49:10;;;;;;;14.55;7.18;;;-0.20;99.90;;;;;;4969513;28;20042;-74
2023/12/02 00:51:56;;;;;;;12.98;6.35;;;-0.20;99.90;;;;;;4968979;28;20048;-73
2023/12/02 00:54:42;;;;;;;11.50;6.68;;;-0.20;99.90;;;;;;4982803;28;20502;-74
2023/12/02 00:57:28;;;;;;;10.27;5.93;;;-0.20;99.90;;;;;;4964778;28;20038;-74
2023/12/02 01:00:15;;;;;;;12.98;6.82;;;-0.20;99.90;;;;;;4991133;28;20498;-73
2023/12/02 01:03:01;;;;;;;13.60;6.80;;;-0.10;99.90;;;;;;5014480;28;20170;-73
2023/12/02 01:05:47;;;;;;;14.13;7.35;;;-0.10;99.90;;;;;;4962469;28;20034;-73
2023/12/02 01:08:33;;;;;;;12.57;6.85;;;-0.10;99.90;;;;;;4970736;28;20541;-72
2023/12/02 01:11:19;;;;;;;14.68;7.43;;;-0.10;99.90;;;;;;4970022;28;20041;-73
2023/12/02 01:14:05;;;;;;;14.07;6.85;;;-0.10;99.90;;;;;;4992213;28;20081;-72
2023/12/02 01:16:52;;;;;;;13.30;6.70;;;-0.10;99.90;;;;;;4995540;28;20124;-74
2023/12/02 01:19:41;;;;;;;11.43;5.88;;;-0.10;99.90;;;;;;4961861;28;20043;-73
2023/12/02 01:22:27;;;;;;;12.98;6.28;;;-0.10;99.90;;;;;;4955429;28;20038;-73
2023/12/02 01:25:13;;;;;;;11.05;5.50;;;-0.10;99.90;;;;;;5006639;28;20043;-73
2023/12/02 01:27:59;;;;;;;10.20;5.00;;;-0.10;99.90;;;;;;4980787;28;20034;-74
2023/12/02 01:30:45;;;;;;;9.63;5.60;;;-0.10;99.90;;;;;;4987249;28;20462;-74
2023/12/02 01:33:32;;;;;;;12.27;5.40;;;-0.10;99.90;;;;;;4991677;28;20125;-75
2023/12/02 01:36:18;;;;;;;12.02;5.88;;;-0.20;99.90;;;;;;4993000;28;20049;-74
2023/12/02 01:39:04;;;;;;;9.73;5.60;;;-0.20;99.90;;;;;;5000690;28;20042;-74
2023/12/02 01:41:50;;;;;;;9.70;5.07;;;-0.10;99.90;;;;;;4970078;28;20057;-74
2023/12/02 01:44:36;;;;;;;11.43;5.63;;;-0.10;99.90;;;;;;4972194;28;20741;-74
2023/12/02 01:47:22;;;;;;;9.50;5.72;;;-0.20;99.90;;;;;;4974205;28;20438;-74
2023/12/02 01:50:08;;;;;;;9.48;5.22;;;-0.10;99.90;;;;;;4983541;28;20030;-74
2023/12/02 01:52:55;;;;;;;9.02;5.50;;;-0.10;99.90;;;;;;4983662;28;20127;-74
2023/12/02 01:55:41;;;;;;;8.93;5.05;;;-0.10;99.90;;;;;;4982436;28;20078;-74
2023/12/02 01:58:27;;;;;;;8.75;5.35;;;-0.10;99.90;;;;;;4976160;28;20037;-74
2023/12/02 02:01:13;;;;;;;11.20;5.78;;;-0.10;99.90;;;;;;5001136;28;20049;-73
2023/12/02 02:03:59;;;;;;;8.65;5.03;;;-0.10;99.90;;;;;;4998780;28;20124;-74
2023/12/02 02:06:45;;;;;;;10.82;5.40;;;-0.10;99.90;;;;;;5000752;28;20087;-74
2023/12/02 02:09:34;;;;;;;9.20;5.25;;;-0.10;99.90;;;;;;4988316;28;20573;-74
2023/12/02 02:12:20;;;;;;;10.52;5.90;;;-0.10;99.90;;;;;;4987505;28;20383;-73
2023/12/02 02:15:07;;;;;;;10.10;5.47;;;-0.10;99.90;;;;;;4992817;28;20038;-74
2023/12/02 02:17:53;;;;;;;10.57;5.88;;;-0.10;99.90;;;;;;4972481;28;20049;-74
2023/12/02 02:20:39;;;;;;;10.10;5.30;;;-0.10;99.90;;;;;;5003188;28;20546;-74
2023/12/02 02:23:25;;;;;;;9.27;5.03;;;-0.10;99.90;;;;;;5029330;28;20038;-74
2023/12/02 02:26:11;;;;;;;12.02;5.97;;;-0.20;99.90;;;;;;4971335;28;20482;-74
2023/12/02 02:28:57;;;;;;;9.70;5.50;;;-0.20;99.90;;;;;;4999757;28;20034;-74
2023/12/02 02:31:43;;;;;;;11.13;5.40;;;-0.20;99.90;;;;;;4972940;28;20048;-74
2023/12/02 02:34:29;;;;;;;8.07;4.85;;;-0.20;99.90;;;;;;4985619;28;20078;-74
2023/12/02 02:37:15;;;;;;;8.80;4.80;;;-0.10;99.90;;;;;;4991004;28;20034;-74
2023/12/02 02:40:02;;;;;;;9.15;4.80;;;-0.20;99.90;;;;;;5005275;28;20133;-74
2023/12/02 02:42:48;;;;;;;11.95;5.25;;;-0.10;99.90;;;;;;4961201;28;20052;-74
2023/12/02 02:45:34;;;;;;;10.00;5.90;;;-0.30;99.90;;;;;;4998220;28;20967;-74
2023/12/02 02:48:20;;;;;;;9.77;5.20;;;-0.40;99.90;;;;;;4982030;28;20097;-74
2023/12/02 02:51:06;;;;;;;11.07;6.43;;;-0.30;99.90;;;;;;4987068;28;20042;-74
2023/12/02 02:53:52;;;;;;;14.38;7.13;;;-0.30;99.90;;;;;;5006225;28;20072;-74
2023/12/02 02:56:38;;;;;;;14.35;6.53;;;-0.40;99.90;;;;;;4974904;28;20047;-74
2023/12/02 02:59:25;;;;;;;13.30;6.82;;;-0.40;99.90;;;;;;4975731;28;20046;-74
2023/12/02 03:02:11;;;;;;;13.63;7.25;;;-0.40;99.90;;;;;;4946438;28;20797;-74
2023/12/02 03:04:58;;;;;;;12.73;7.00;;;-0.50;99.90;;;;;;4971806;28;20043;-74
2023/12/02 03:07:44;;;;;;;15.83;7.03;;;-0.50;99.90;;;;;;4988980;28;20068;-74
2023/12/02 03:10:30;;;;;;;13.05;7.03;;;-0.60;99.90;;;;;;4986318;28;20073;-74
2023/12/02 03:13:17;;;;;;;12.20;6.90;;;-0.50;99.90;;;;;;4973828;28;20038;-74
2023/12/02 03:16:03;;;;;;;13.30;7.43;;;-0.60;99.90;;;;;;5007589;28;20034;-73
2023/12/02 03:18:49;;;;;;;11.63;5.97;;;-0.60;99.90;;;;;;4983804;28;20129;-73
2023/12/02 03:21:35;;;;;;;11.75;6.03;;;-0.50;99.90;;;;;;4976096;28;20642;-73
2023/12/02 03:24:21;;;;;;;12.18;5.90;;;-0.60;99.90;;;;;;4977042;28;20105;-73
2023/12/02 03:27:07;;;;;;;9.88;5.70;;;-0.70;99.90;;;;;;4976793;28;20042;-73
2023/12/02 03:29:53;;;;;;;12.00;6.28;;;-0.70;99.90;;;;;;4977101;28;20139;-73
2023/12/02 03:32:40;;;;;;;13.55;7.22;;;-0.70;99.90;;;;;;4986833;28;20049;-73
2023/12/02 03:35:26;;;;;;;14.75;8.27;;;-0.60;99.90;;;;;;4977919;28;20104;-74
2023/12/02 03:38:12;;;;;;;15.90;8.18;;;-0.60;99.90;;;;;;5001871;28;20038;-74
2023/12/02 03:40:59;;;;;;;13.05;7.28;;;-0.70;99.90;;;;;;5000454;28;20046;-73
2023/12/02 03:43:45;;;;;;;14.95;7.13;;;-0.70;99.90;;;;;;4995102;28;20379;-74
2023/12/02 03:46:31;;;;;;;14.23;7.57;;;-0.80;99.90;;;;;;4984215;28;20455;-73
2023/12/02 03:49:18;;;;;;;15.18;8.13;;;-0.80;99.90;;;;;;4983859;28;20089;-73
2023/12/02 03:52:04;;;;;;;16.77;8.25;;;-0.90;99.90;;;;;;4998339;28;20085;-73
2023/12/02 03:54:50;;;;;;;14.52;8.13;;;-0.90;99.90;;;;;;4957363;28;20089;-73
2023/12/02 03:57:36;;;;;;;16.80;8.65;;;-1.00;99.90;;;;;;5000745;28;20038;-73
2023/12/02 04:00:23;;;;;;;17.10;8.63;;;-0.90;99.90;;;;;;4973687;28;20041;-73
2023/12/02 04:03:09;;;;;;;14.70;8.38;;;-0.90;99.90;;;;;;5004845;28;20049;-73
2023/12/02 04:05:56;;;;;;;13.18;7.38;;;-0.80;99.90;;;;;;4983400;28;20038;-72
2023/12/02 04:08:42;;;;;;;15.70;8.07;;;-0.90;99.90;;;;;;4975565;28;20475;-73
2023/12/02 04:11:28;;;;;;;16.38;9.23;;;-0.90;99.90;;;;;;4968755;28;20050;-73
2023/12/02 04:14:14;;;;;;;20.65;9.25;;;-0.80;99.90;;;;;;4964940;28;20468;-73
2023/12/02 04:17:01;;;;;;;15.73;8.20;;;-0.90;99.90;;;;;;4983101;28;20046;-74
2023/12/02 04:19:47;;;;;;;16.17;8.27;;;-0.90;99.90;;;;;;4994055;28;20157;-74
2023/12/02 04:22:33;;;;;;;18.88;9.27;;;-0.90;99.90;;;;;;4967039;28;20144;-74
2023/12/02 04:25:19;;;;;;;18.75;10.05;;;-0.80;99.90;;;;;;4976762;28;20077;-74
2023/12/02 04:28:05;;;;;;;18.08;9.75;;;-0.80;99.90;;;;;;5000107;28;20033;-74
2023/12/02 04:30:52;;;;;;;20.13;10.40;;;-0.70;99.90;;;;;;4991768;28;20352;-74
2023/12/02 04:33:38;;;;;;;21.83;10.38;;;-0.80;99.90;;;;;;4984707;28;20050;-74
2023/12/02 04:36:24;;;;;;;21.60;10.82;;;-0.80;99.90;;;;;;5003822;28;20042;-74
2023/12/02 04:39:11;;;;;;;20.90;10.35;;;-0.80;99.90;;;;;;4984495;28;20495;-74
2023/12/02 04:41:57;;;;;;;20.20;10.30;;;-0.70;99.90;;;;;;4993303;28;20391;-74
2023/12/02 04:44:43;;;;;;;20.75;11.35;;;-0.70;99.90;;;;;;4997841;28;20046;-74
2023/12/02 04:47:29;;;;;;;20.42;10.85;;;-0.70;99.90;;;;;;4981494;28;20050;-74
2023/12/02 04:50:15;;;;;;;19.05;10.32;;;-0.60;99.90;;;;;;4979331;28;20030;-74
2023/12/02 04:53:01;;;;;;;18.27;9.57;;;-0.70;99.90;;;;;;4983124;28;20034;-74
2023/12/02 04:55:47;;;;;;;21.23;10.70;;;-0.80;99.90;;;;;;5002674;28;20548;-74
2023/12/02 04:58:33;;;;;;;23.67;9.68;;;-0.80;99.90;;;;;;4984648;28;20046;-74
2023/12/02 05:01:19;;;;;;;23.02;10.93;;;-0.80;99.90;;;;;;5011565;28;20045;-74
2023/12/02 05:04:05;;;;;;;21.23;10.82;;;-0.90;99.90;;;;;;5004139;28;20039;-74
2023/12/02 05:06:52;;;;;;;21.60;10.63;;;-0.80;99.90;;;;;;5001639;28;20066;-74
2023/12/02 05:09:38;;;;;;;20.52;9.43;;;-0.80;99.90;;;;;;4963562;28;20570;-74
2023/12/02 05:12:25;;;;;;;19.48;10.02;;;-1.00;99.90;;;;;;5003603;28;20066;-74
2023/12/02 05:15:11;;;;;;;20.65;9.43;;;-1.00;99.90;;;;;;4973186;28;20046;-74
2023/12/02 05:17:57;;;;;;;20.27;8.70;;;-1.00;99.90;;;;;;5005542;28;20038;-73
2023/12/02 05:20:43;;;;;;;17.08;9.00;;;-1.00;99.90;;;;;;4990920;28;20044;-73
2023/12/02 05:23:29;;;;;;;19.73;10.32;;;-1.00;99.90;;;;;;4988499;28;20034;-73
2023/12/02 05:26:15;;;;;;;18.83;9.45;;;-1.10;99.90;;;;;;4984283;28;20042;-73
2023/12/02 05:29:01;;;;;;;13.75;6.75;;;-1.10;99.90;;;;;;4984234;28;20475;-73
2023/12/02 05:31:48;;;;;;;15.88;7.93;;;-1.10;99.90;;;;;;4982230;28;20049;-73
2023/12/02 05:34:34;;;;;;;14.70;7.95;;;-1.00;99.90;;;;;;4992996;28;20475;-73
2023/12/02 05:37:20;;;;;;;15.25;7.15;;;-1.00;99.90;;;;;;5008367;28;20082;-73
2023/12/02 05:40:08;;;;;;;14.80;6.55;;;-1.00;99.90;;;;;;4997904;28;20069;-73
2023/12/02 05:42:54;;;;;;;13.05;6.38;;;-1.00;99.90;;;;;;5000991;28;20342;-72
2023/12/02 05:45:41;;;;;;;11.75;5.80;;;-0.90;99.90;;;;;;4994474;28;20102;-72
2023/12/02 05:48:27;;;;;;;12.15;5.93;;;-1.00;99.90;;;;;;4960646;28;20052;-72
2023/12/02 05:51:13;;;;;;;11.38;6.30;;;-1.20;99.90;;;;;;4995765;28;20125;-72
2023/12/02 05:54:00;;;;;;;12.02;5.28;;;-1.00;99.90;;;;;;5003226;28;20057;-73
2023/12/02 05:56:46;;;;;;;8.02;4.45;;;-1.00;99.90;;;;;;5023316;28;20041;-73
2023/12/02 05:59:32;;;;;;;7.57;3.97;;;-0.90;99.90;;;;;;4989509;28;20404;-73
2023/12/02 06:02:18;;;;;;;7.40;3.22;;;-1.00;99.90;;;;;;5004080;28;20084;-73
2023/12/02 06:05:06;;;;;;;5.25;2.85;;;-1.00;99.90;;;;;;5006146;28;20093;-72
2023/12/02 06:07:52;;;;;;;6.57;3.13;;;-0.90;99.90;;;;;;4983955;28;20387;-72
2023/12/02 06:10:38;;;;;;;6.78;3.63;;;-0.90;99.90;;;;;;4986402;28;20048;-72
2023/12/02 06:13:24;;;;;;;6.70;3.53;;;-0.90;99.90;;;;;;4992363;28;20497;-72
2023/12/02 06:16:10;;;;;;;6.15;3.30;;;-0.90;99.90;;;;;;5004653;28;20069;-73
2023/12/02 06:18:56;;;;;;;8.77;4.10;;;-0.90;99.90;;;;;;5007164;28;20042;-72
2023/12/02 06:21:42;;;;;;;7.13;3.38;;;-0.90;99.90;;;;;;5007687;28;20117;-72
2023/12/02 06:24:28;;;;;;;6.10;3.20;;;-1.00;99.90;;;;;;4974709;28;20072;-72
2023/12/02 06:27:14;;;;;;;7.40;4.00;;;-0.90;99.90;;;;;;5002792;28;20128;-72
2023/12/02 06:30:00;;;;;;;5.95;3.35;;;-0.90;99.90;;;;;;5002876;28;20073;-72
2023/12/02 06:32:47;;;;;;;7.97;4.50;;;-0.90;99.90;;;;;;4992901;28;20049;-74
2023/12/02 06:35:33;;;;;;;7.57;3.97;;;-0.80;99.90;;;;;;5015004;28;20095;-73
2023/12/02 06:38:19;;;;;;;8.18;3.50;;;-0.80;99.90;;;;;;5015968;28;20048;-73
2023/12/02 06:41:05;;;;;;;6.43;3.47;;;-0.80;99.90;;;;;;5007691;28;20129;-73
2023/12/02 06:43:51;;;;;;;7.80;4.20;;;-0.80;99.90;;;;;;4993466;28;20180;-73
2023/12/02 06:46:37;;;;;;;7.93;4.45;;;-0.80;99.90;;;;;;5001943;28;20132;-74
2023/12/02 06:49:23;;;;;;;7.53;4.10;;;-0.80;99.90;;;;;;5002833;28;20048;-74
2023/12/02 06:52:09;;;;;;;8.23;4.35;;;-0.90;99.90;;;;;;5021466;28;20335;-73
2023/12/02 06:54:55;;;;;;;10.07;4.15;;;-0.90;99.90;;;;;;4994708;28;20049;-73
2023/12/02 06:57:42;;;;;;;7.65;3.90;;;-0.90;99.90;;;;;;4987729;28;20038;-73
2023/12/02 07:00:28;;;;;;;6.05;3.45;;;-0.90;99.90;;;;;;4995619;28;20084;-74
2023/12/02 07:03:14;;;;;;;8.13;4.13;;;-0.90;99.90;;;;;;4989573;28;20074;-73
2023/12/02 07:06:00;;;;;;;10.55;4.32;;;-0.90;99.90;;;;;;4985148;28;20097;-73
2023/12/02 07:08:47;;;;;;;8.07;4.43;;;-0.90;99.90;;;;;;4997644;28;20041;-73
2023/12/02 07:11:33;;;;;;;6.57;3.83;;;-0.90;99.90;;;;;;4995022;28;20585;-73
2023/12/02 07:14:19;;;;;;;8.13;4.90;;;-0.90;99.90;;;;;;4986172;28;20339;-73
2023/12/02 07:17:05;;;;;;;11.32;5.43;;;-0.90;99.90;;;;;;4973453;28;20042;-73
2023/12/02 07:19:51;;;;;;;12.18;6.38;;;-0.90;99.90;;;;;;4983467;28;20046;-73
2023/12/02 07:22:37;;;;;;;11.35;5.75;;;-0.90;99.90;;;;;;4972942;28;20042;-73
2023/12/02 07:25:24;;;;;;;10.63;5.97;;;-0.90;99.90;;;;;;5001288;28;20108;-73
2023/12/02 07:28:10;;;;;;;12.60;5.68;;;-0.90;99.90;;;;;;4970539;28;20073;-73
2023/12/02 07:30:56;;;;;;;11.48;5.70;;;-1.00;99.90;;;;;;4955522;28;20084;-74
2023/12/02 07:33:42;;;;;;;11.00;5.60;;;-1.00;99.90;;;;;;4982942;28;20046;-73
2023/12/02 07:36:28;;;;;;;12.93;6.28;;;-1.00;99.90;;;;;;4995087;28;20364;-73
2023/12/02 07:39:14;;;;;;;11.00;6.07;;;-0.90;99.90;;;;;;4998783;28;20100;-73
2023/12/02 07:42:00;;;;;;;11.45;5.60;;;-0.90;99.90;;;;;;4951745;28;20109;-74
2023/12/02 07:44:46;;;;;;;12.52;6.65;;;-0.90;99.90;;;;;;4978447;28;20358;-73
2023/12/02 07:47:32;;;;;;;11.55;6.18;;;-0.90;99.90;;;;;;4991167;28;20041;-75
2023/12/02 07:50:19;;;;;;;12.13;6.10;;;-0.90;99.90;;;;;;4986440;28;20036;-74
2023/12/02 07:53:05;;;;;;;13.43;7.65;;;-0.80;99.90;;;;;;4989620;28;20080;-73
2023/12/02 07:55:51;;;;;;;13.82;7.50;;;-0.90;99.90;;;;;;4987896;28;20046;-73
2023/12/02 07:58:37;;;;;;;13.40;6.80;;;-0.90;99.90;;;;;;4965306;28;20116;-74
2023/12/02 08:01:24;;;;;;;12.50;7.20;;;-0.90;99.90;;;;;;4967954;28;20054;-74
2023/12/02 08:04:10;;;;;;;12.32;6.50;;;-0.80;99.90;;;;;;4981244;28;20049;-74
2023/12/02 08:06:56;;;;;;;11.63;6.60;;;-0.80;99.90;;;;;;4987086;28;20038;-74
2023/12/02 08:09:42;;;;;;;14.30;6.65;;;-0.80;99.90;;;;;;4970098;28;20049;-74
2023/12/02 08:12:28;;;;;;;11.70;6.93;;;-0.80;99.90;;;;;;4989602;28;20046;-73
2023/12/02 08:15:14;;;;;;;12.65;6.55;;;-0.80;99.90;;;;;;4995689;28;20464;-73
2023/12/02 08:18:00;;;;;;;12.38;6.20;;;-0.70;99.90;;;;;;4965475;28;20073;-73
2023/12/02 08:20:46;;;;;;;12.65;6.35;;;-0.70;99.90;;;;;;4992241;28;20073;-73
2023/12/02 08:23:32;;;;;;;12.13;6.22;;;-0.70;99.90;;;;;;4997067;28;20041;-73
2023/12/02 08:26:19;;;;;;;12.57;6.70;;;-0.70;99.90;;;;;;4994543;28;20034;-74
2023/12/02 08:29:05;;;;;;;10.32;5.68;;;-0.70;99.90;;;;;;4998406;28;20042;-74
2023/12/02 08:31:51;;;;;;;11.02;6.28;;;-0.60;99.90;;;;;;4998403;28;20041;-74
2023/12/02 08:34:37;;;;;;;11.65;6.25;;;-0.60;99.90;;;;;;4996434;28;20038;-74
2023/12/02 08:37:23;;;;;;;12.25;6.68;;;-0.60;99.90;;;;;;4981900;28;20034;-74
2023/12/02 08:40:09;;;;;;;12.30;6.50;;;-0.60;99.90;;;;;;4992070;28;20129;-74
2023/12/02 08:42:56;;;;;;;13.68;6.70;;;-0.50;99.90;;;;;;4984702;28;20185;-74
2023/12/02 08:45:42;;;;;;;15.73;7.65;;;-0.50;99.90;;;;;;5011954;28;20046;-74
2023/12/02 08:48:28;;;;;;;13.43;7.95;;;-0.50;99.90;;;;;;4980130;28;20035;-74
2023/12/02 08:51:14;;;;;;;15.52;7.25;;;-0.50;99.90;;;;;;4995458;28;20145;-74
2023/12/02 08:54:01;;;;;;;14.05;7.10;;;-0.50;99.90;;;;;;4966404;28;20069;-74
2023/12/02 08:56:50;;;;;;;18.55;8.75;;;-0.50;99.90;;;;;;4969703;28;20106;-74
2023/12/02 08:59:36;;;;;;;17.02;7.32;;;-0.60;99.90;;;;;;4979400;28;20408;-74
2023/12/02 09:02:22;;;;;;;15.82;7.95;;;-0.60;99.90;;;;;;4974767;28;20482;-73
2023/12/02 09:05:08;;;;;;;16.35;7.95;;;-0.50;99.90;;;;;;4984672;28;20038;-74
2023/12/02 09:07:55;;;;;;;18.33;8.88;;;-0.50;99.90;;;;;;4975430;28;20042;-74
2023/12/02 09:10:41;;;;;;;16.42;8.57;;;-0.40;99.90;;;;;;4975046;28;20042;-74
2023/12/02 09:13:57;;;;;;;18.13;8.38;;;-0.40;99.90;;;;;;4992320;28;20046;-74
2023/12/02 09:16:46;;;;;;;19.80;8.88;;;-0.30;99.90;;;;;;4979172;28;20105;-73
2023/12/02 09:19:42;;;;;;;19.92;9.80;;;-0.30;99.90;;;;;;4991976;28;20042;-73
2023/12/02 09:22:46;;;;;;;24.35;12.95;;;-0.30;99.90;;;;;;4995833;28;20053;-73
2023/12/02 09:25:36;;;;;;;21.60;11.32;;;-0.30;99.90;;;;;;5002640;28;20444;-73
2023/12/02 09:28:27;;;;;;;23.25;11.38;;;-0.40;99.90;;;;;;4987539;28;20042;-72
2023/12/02 09:31:13;;;;;;;24.27;12.45;;;-0.30;99.90;;;;;;4998776;28;20070;-72
2023/12/02 09:34:03;;;;;;;27.52;13.38;;;-0.30;99.90;;;;;;4982668;28;20375;-72
2023/12/02 09:36:49;;;;;;;21.95;11.02;;;-0.30;99.90;;;;;;4986909;28;20046;-72
2023/12/02 09:40:09;;;;;;;24.48;12.55;;;-0.30;99.90;;;;;;5001971;28;20467;-72
2023/12/02 09:43:24;;;;;;;24.42;11.90;;;-0.30;99.90;;;;;;5004149;28;20042;-72
2023/12/02 09:46:30;;;;;;;24.98;11.82;;;-0.30;99.90;;;;;;4996888;28;20026;-72
2023/12/02 09:49:46;;;;;;;24.98;11.45;;;-0.40;99.90;;;;;;4985449;28;20045;-72
2023/12/02 09:52:45;;;;;;;23.77;11.85;;;-0.30;99.90;;;;;;4986195;28;20038;-71
2023/12/02 09:55:41;;;;;;;22.05;11.80;;;-0.40;99.90;;;;;;4954895;28;1401129;-71
2023/12/02 09:58:30;;;;;;;29.70;12.50;;;-0.40;99.90;;;;;;4989984;28;20046;-72
2023/12/02 10:01:28;;;;;;;25.05;13.18;;;-0.40;99.90;;;;;;5003310;28;20494;-72
2023/12/02 10:04:17;;;;;;;26.48;13.43;;;-0.40;99.90;;;;;;4991558;28;20037;-72
2023/12/02 10:07:04;;;;;;;25.55;12.57;;;-0.40;99.90;;;;;;5008830;28;20339;-72
2023/12/02 10:10:09;;;;;;;27.60;12.75;;;-0.40;99.90;;;;;;4985108;28;20077;-72
2023/12/02 10:13:16;;;;;;;29.80;14.05;;;-0.40;99.90;;;;;;4998331;28;20041;-72
2023/12/02 10:16:02;;;;;;;31.73;15.57;;;-0.50;99.90;;;;;;4991970;28;20033;-73
2023/12/02 10:18:56;;;;;;;32.00;14.73;;;-0.40;99.90;;;;;;5002091;28;20152;-72
2023/12/02 10:21:43;;;;;;;32.40;15.70;;;-0.40;99.90;;;;;;5000321;28;20038;-72
2023/12/02 10:24:42;;;;;;;37.05;17.02;;;-0.50;99.90;;;;;;4996061;28;20038;-72
2023/12/02 10:27:29;;;;;;;32.67;16.65;;;-0.50;99.90;;;;;;5000021;28;20029;-72
2023/12/02 10:30:16;;;;;;;38.45;19.27;;;-0.50;99.90;;;;;;4987318;28;20037;-72
2023/12/02 10:33:09;;;;;;;34.55;16.55;;;-0.60;99.90;;;;;;5009470;28;20052;-72
2023/12/02 10:35:57;;;;;;;37.88;18.63;;;-0.60;99.90;;;;;;5003001;28;20180;-72
2023/12/02 10:38:43;;;;;;;38.25;17.33;;;-0.60;99.90;;;;;;5017059;28;20038;-72
2023/12/02 10:41:38;;;;;;;38.53;17.55;;;-0.50;99.90;;;;;;5012244;28;20096;-72
2023/12/02 10:44:24;;;;;;;41.83;17.25;;;-0.50;99.90;;;;;;5018170;28;20107;-73
2023/12/02 10:47:11;;;;;;;35.03;15.70;;;-0.50;99.90;;;;;;5013701;28;20660;-73
2023/12/02 10:50:01;;;;;;;36.75;17.50;;;-0.50;99.90;;;;;;4993759;28;20053;-72
2023/12/02 10:53:03;;;;;;;33.65;15.23;;;-0.50;99.90;;;;;;4996635;28;20053;-72
2023/12/02 10:55:55;;;;;;;34.05;16.38;;;-0.50;99.90;;;;;;4993386;28;20128;-72
2023/12/02 10:58:43;;;;;;;41.67;18.65;;;-0.50;99.90;;;;;;4986230;28;20051;-72
2023/12/02 11:01:37;;;;;;;36.60;17.75;;;-0.60;99.90;;;;;;5013782;28;20050;-72
2023/12/02 11:04:28;;;;;;;39.30;16.63;;;-0.70;99.90;;;;;;4988717;28;20046;-73
2023/12/02 11:07:15;;;;;;;45.92;18.50;;;-0.60;99.90;;;;;;4995460;28;20456;-72
2023/12/02 11:10:09;;;;;;;40.78;17.52;;;-0.60;99.90;;;;;;5021678;28;20390;-73
2023/12/02 11:12:56;;;;;;;37.97;18.83;;;-0.60;99.90;;;;;;4998751;28;20042;-73
2023/12/02 11:15:45;;;;;;;36.75;17.25;;;-0.60;99.90;;;;;;5004069;28;20041;-73
2023/12/02 11:18:54;;;;;;;35.47;15.95;;;-0.60;99.90;;;;;;5022371;28;20092;-72
2023/12/02 11:21:49;;;;;;;37.20;16.13;;;-0.50;99.90;;;;;;4987872;28;20480;-74
2023/12/02 11:25:21;;;;;;;35.50;16.55;;;-0.60;99.90;;;;;;5000182;28;20057;-74
2023/12/02 11:28:15;;;;;;;39.38;18.67;;;-0.60;99.90;;;;;;4992921;28;20038;-74
2023/12/02 11:31:04;;;;;;;41.33;19.30;;;-0.60;99.90;;;;;;5031917;28;20096;-73
2023/12/02 11:34:32;;;;;;;39.20;16.77;;;-0.70;99.90;;;;;;5014800;28;20049;-74
2023/12/02 11:37:28;;;;;;;35.58;16.00;;;-0.70;99.90;;;;;;4983455;28;20125;-73
2023/12/02 11:40:35;;;;;;;36.78;16.08;;;-0.70;99.90;;;;;;5016166;28;20034;-74
2023/12/02 11:43:48;;;;;;;34.35;15.77;;;-0.70;99.90;;;;;;4999449;28;20598;-74
2023/12/02 11:46:57;;;;;;;43.67;20.52;;;-0.60;99.90;;;;;;5019357;28;20037;-74
2023/12/02 11:50:05;;;;;;;36.15;16.48;;;-0.60;99.90;;;;;;4964899;28;20613;-73
2023/12/02 11:53:09;;;;;;;35.60;15.95;;;-0.60;99.90;;;;;;5001377;28;20045;-72
2023/12/02 11:56:09;;;;;;;38.13;19.42;;;-0.60;99.90;;;;;;4994744;28;20427;-74
2023/12/02 11:59:16;;;;;;;42.20;18.73;;;-0.60;99.90;;;;;;4974570;28;20077;-73
2023/12/02 12:02:30;;;;;;;39.10;18.52;;;-0.50;99.90;;;;;;4985383;28;20061;-74
2023/12/02 12:05:21;;;;;;;41.45;20.75;;;-0.40;99.90;;;;;;4992159;28;20467;-75
2023/12/02 12:08:13;;;;;;;44.10;18.27;;;-0.30;99.90;;;;;;5001135;28;20049;-74
2023/12/02 12:10:59;;;;;;;44.03;20.48;;;-0.30;99.90;;;;;;4989192;28;20034;-75
2023/12/02 12:13:46;;;;;;;41.92;18.75;;;-0.30;99.90;;;;;;4997704;28;20034;-74
2023/12/02 12:16:32;;;;;;;49.25;23.02;;;-0.30;99.90;;;;;;4983596;28;20070;-75
2023/12/02 12:19:18;;;;;;;41.13;19.17;;;-0.30;99.90;;;;;;5004005;28;20026;-75
2023/12/02 12:22:05;;;;;;;43.47;20.08;;;-0.30;99.90;;;;;;4994688;28;20127;-74
2023/12/02 12:24:51;;;;;;;43.92;20.45;;;-0.30;99.90;;;;;;4981598;28;20038;-74
2023/12/02 12:27:37;;;;;;;41.35;18.20;;;-0.30;99.90;;;;;;4981036;28;20098;-74
2023/12/02 12:30:23;;;;;;;47.22;20.83;;;-0.30;99.90;;;;;;4976662;28;20034;-74
2023/12/02 12:33:12;;;;;;;41.53;19.73;;;-0.40;99.90;;;;;;4964492;28;20484;-75
2023/12/02 12:36:04;;;;;;;42.88;20.70;;;-0.40;99.90;;;;;;4988059;28;20043;-74
2023/12/02 12:38:52;;;;;;;44.38;20.70;;;-0.40;99.90;;;;;;4970448;28;20042;-74
2023/12/02 12:41:39;;;;;;;47.58;19.58;;;-0.40;99.90;;;;;;4979335;28;20053;-74
2023/12/02 12:44:38;;;;;;;43.45;18.90;;;-0.40;99.90;;;;;;4963730;28;20042;-74
2023/12/02 12:47:27;;;;;;;48.33;20.92;;;-0.40;99.90;;;;;;4976687;28;20372;-74
2023/12/02 12:50:14;;;;;;;46.50;21.48;;;-0.40;99.90;;;;;;4994172;28;20048;-74
2023/12/02 12:53:16;;;;;;;49.00;22.27;;;-0.40;99.90;;;;;;4972230;28;20031;-74
2023/12/02 12:56:09;;;;;;;53.05;24.27;;;-0.40;99.90;;;;;;4957449;28;20047;-75
2023/12/02 12:58:59;;;;;;;62.78;26.02;;;-0.20;99.90;;;;;;4960189;28;20130;-75
2023/12/02 13:02:15;;;;;;;51.45;23.00;;;-0.30;99.90;;;;;;4975844;28;20054;-75
2023/12/02 13:05:12;;;;;;;46.92;21.15;;;-0.40;99.90;;;;;;4968270;28;20049;-75
2023/12/02 13:08:42;;;;;;;52.23;21.63;;;-0.40;99.90;;;;;;4947481;28;20039;-75
2023/12/02 13:11:29;;;;;;;48.15;22.70;;;-0.40;99.90;;;;;;4925429;28;20290;-75
2023/12/02 13:14:25;;;;;;;55.83;26.08;;;-0.30;99.90;;;;;;4959384;28;20146;-75
2023/12/02 13:17:13;;;;;;;50.47;23.02;;;-0.40;99.90;;;;;;4973013;28;20070;-75
2023/12/02 13:20:20;;;;;;;57.58;25.02;;;-0.40;99.90;;;;;;4960198;28;20050;-75
2023/12/02 13:23:12;;;;;;;56.15;24.02;;;-0.30;99.90;;;;;;4966333;28;20317;-75
2023/12/02 13:26:02;;;;;;;49.88;22.48;;;-0.30;99.90;;;;;;4969689;28;20467;-75
2023/12/02 13:29:03;;;;;;;54.50;24.00;;;-0.30;99.90;;;;;;4977740;28;20482;-75
2023/12/02 13:31:50;;;;;;;59.58;26.15;;;-0.30;99.90;;;;;;5005708;28;20132;-75
2023/12/02 13:35:09;;;;;;;54.63;22.50;;;-0.30;99.90;;;;;;4991089;28;20042;-75
2023/12/02 13:38:23;;;;;;;59.55;26.42;;;-0.30;99.90;;;;;;5008826;28;20045;-75
2023/12/02 13:41:38;;;;;;;58.65;24.83;;;-0.30;99.90;;;;;;5015464;28;20074;-75
2023/12/02 13:44:26;;;;;;;56.72;24.85;;;-0.30;99.90;;;;;;4992918;28;20030;-75
2023/12/02 13:47:49;;;;;;;61.20;24.98;;;-0.20;99.90;;;;;;4971865;28;20045;-75
2023/12/02 13:50:44;;;;;;;55.92;23.83;;;-0.20;99.90;;;;;;5019313;28;20148;-75
2023/12/02 13:53:45;;;;;;;60.50;25.10;;;-0.20;99.90;;;;;;4996577;28;20045;-75
2023/12/02 13:56:47;;;;;;;58.08;22.40;;;-0.20;99.90;;;;;;4951927;28;20488;-75
2023/12/02 13:59:45;;;;;;;53.50;21.98;;;-0.20;99.90;;;;;;4983287;28;20053;-75
2023/12/02 14:03:21;;;;;;;62.95;28.52;;;-0.10;99.90;;;;;;4960232;28;20050;-75
2023/12/02 14:06:16;;;;;;;60.15;23.52;;;-0.20;99.90;;;;;;5001831;28;20033;-75
2023/12/02 14:09:06;;;;;;;58.03;23.92;;;-0.20;99.90;;;;;;4980100;28;20045;-75
2023/12/02 14:12:34;;;;;;;56.13;25.10;;;-0.10;99.90;;;;;;4983040;28;20788;-75
2023/12/02 14:15:31;;;;;;;59.85;23.08;;;-0.10;99.90;;;;;;4983396;28;20117;-75
2023/12/02 14:18:34;;;;;;;56.40;23.67;;;-0.20;99.90;;;;;;4977429;28;20038;-75
2023/12/02 14:22:28;;;;;;;59.60;23.20;;;-0.10;99.90;;;;;;4996547;28;20076;-75
2023/12/02 14:25:42;;;;;;;61.20;24.58;;;-0.10;99.90;;;;;;4944934;28;20112;-75
2023/12/02 14:29:00;;;;;;;57.92;24.75;;;-0.10;99.90;;;;;;4957571;29;20038;-75
2023/12/02 14:31:48;;;;;;;58.97;24.83;;;0.00;99.90;;;;;;4983803;28;20045;-75